sensor_id;sensor_type;location;lat;lon;timestamp;P1;durP1;ratioP1;P2;durP2;ratioP2
41057;SDS011;27499;48.884;2.258;2022-08-01T00:00:06;9.52;;;9.02;;
41057;SDS011;27499;48.884;2.258;2022-08-01T00:02:35;9.57;;;9.18;;
41057;SDS011;27499;48.884;2.258;2022-08-01T00:05:04;10.18;;;9.57;;
41057;SDS011;27499;48.884;2.258;2022-08-01T00:07:33;9.50;;;9.00;;
41057;SDS011;27499;48.884;2.258;2022-08-01T00:10:02;9.70;;;9.30;;
41057;SDS011;27499;48.884;2.258;2022-08-01T00:12:29;10.23;;;9.40;;
41057;SDS011;27499;48.884;2.258;2022-08-01T00:14:56;9.73;;;9.25;;
41057;SDS011;27499;48.884;2.258;2022-08-01T00:17:23;9.52;;;9.02;;
41057;SDS011;27499;48.884;2.258;2022-08-01T00:19:50;9.43;;;8.98;;
41057;SDS011;27499;48.884;2.258;2022-08-01T00:22:18;9.25;;;8.77;;
41057;SDS011;27499;48.884;2.258;2022-08-01T00:24:44;8.93;;;8.32;;
41057;SDS011;27499;48.884;2.258;2022-08-01T00:27:11;9.55;;;9.05;;
41057;SDS011;27499;48.884;2.258;2022-08-01T00:29:38;8.75;;;8.35;;
41057;SDS011;27499;48.884;2.258;2022-08-01T00:32:25;9.13;;;8.63;;
41057;SDS011;27499;48.884;2.258;2022-08-01T00:34:52;8.90;;;8.50;;
41057;SDS011;27499;48.884;2.258;2022-08-01T00:37:19;8.63;;;8.23;;
41057;SDS011;27499;48.884;2.258;2022-08-01T00:39:46;8.38;;;7.97;;
41057;SDS011;27499;48.884;2.258;2022-08-01T00:42:13;8.82;;;8.43;;
41057;SDS011;27499;48.884;2.258;2022-08-01T00:44:40;8.77;;;8.38;;
41057;SDS011;27499;48.884;2.258;2022-08-01T00:47:07;9.02;;;8.35;;
41057;SDS011;27499;48.884;2.258;2022-08-01T00:49:34;8.40;;;7.90;;
41057;SDS011;27499;48.884;2.258;2022-08-01T00:52:02;8.85;;;8.45;;
41057;SDS011;27499;48.884;2.258;2022-08-01T00:54:31;8.05;;;7.57;;
41057;SDS011;27499;48.884;2.258;2022-08-01T00:56:59;8.70;;;8.30;;
41057;SDS011;27499;48.884;2.258;2022-08-01T00:59:26;8.55;;;8.15;;
41057;SDS011;27499;48.884;2.258;2022-08-01T01:01:54;8.73;;;8.32;;
41057;SDS011;27499;48.884;2.258;2022-08-01T01:04:21;7.70;;;7.18;;
41057;SDS011;27499;48.884;2.258;2022-08-01T01:10:07;7.93;;;7.53;;
41057;SDS011;27499;48.884;2.258;2022-08-01T01:18:24;7.90;;;7.40;;
41057;SDS011;27499;48.884;2.258;2022-08-01T01:29:17;7.82;;;7.43;;
41057;SDS011;27499;48.884;2.258;2022-08-01T01:32:28;8.48;;;8.07;;
41057;SDS011;27499;48.884;2.258;2022-08-01T01:34:56;7.95;;;7.55;;
41057;SDS011;27499;48.884;2.258;2022-08-01T01:37:25;8.77;;;8.07;;
41057;SDS011;27499;48.884;2.258;2022-08-01T01:39:53;8.02;;;7.63;;
41057;SDS011;27499;48.884;2.258;2022-08-01T01:42:21;7.45;;;7.05;;
41057;SDS011;27499;48.884;2.258;2022-08-01T01:44:51;7.70;;;7.25;;
41057;SDS011;27499;48.884;2.258;2022-08-01T01:47:20;7.72;;;7.32;;
41057;SDS011;27499;48.884;2.258;2022-08-01T01:49:49;7.55;;;7.05;;
41057;SDS011;27499;48.884;2.258;2022-08-01T01:52:18;7.35;;;6.85;;
41057;SDS011;27499;48.884;2.258;2022-08-01T01:54:47;7.68;;;7.28;;
41057;SDS011;27499;48.884;2.258;2022-08-01T01:57:16;7.95;;;7.35;;
41057;SDS011;27499;48.884;2.258;2022-08-01T01:59:46;7.25;;;6.90;;
41057;SDS011;27499;48.884;2.258;2022-08-01T02:02:16;7.63;;;7.22;;
41057;SDS011;27499;48.884;2.258;2022-08-01T02:04:45;7.90;;;7.53;;
41057;SDS011;27499;48.884;2.258;2022-08-01T02:07:19;8.57;;;8.05;;
41057;SDS011;27499;48.884;2.258;2022-08-01T02:09:48;8.90;;;8.50;;
41057;SDS011;27499;48.884;2.258;2022-08-01T02:12:17;9.15;;;8.55;;
41057;SDS011;27499;48.884;2.258;2022-08-01T02:14:48;10.35;;;9.85;;
41057;SDS011;27499;48.884;2.258;2022-08-01T02:17:17;10.65;;;10.05;;
41057;SDS011;27499;48.884;2.258;2022-08-01T02:19:46;11.77;;;11.20;;
41057;SDS011;27499;48.884;2.258;2022-08-01T02:22:16;11.45;;;10.95;;
41057;SDS011;27499;48.884;2.258;2022-08-01T02:27:22;12.55;;;12.00;;
41057;SDS011;27499;48.884;2.258;2022-08-01T02:29:58;13.75;;;13.07;;
41057;SDS011;27499;48.884;2.258;2022-08-01T02:32:31;14.38;;;13.68;;
41057;SDS011;27499;48.884;2.258;2022-08-01T02:35:04;13.82;;;13.20;;
41057;SDS011;27499;48.884;2.258;2022-08-01T02:37:36;14.82;;;14.13;;
41057;SDS011;27499;48.884;2.258;2022-08-01T02:40:12;14.45;;;13.85;;
41057;SDS011;27499;48.884;2.258;2022-08-01T02:42:40;15.13;;;14.52;;
41057;SDS011;27499;48.884;2.258;2022-08-01T02:45:17;14.95;;;14.05;;
41057;SDS011;27499;48.884;2.258;2022-08-01T02:47:45;15.18;;;14.50;;
41057;SDS011;27499;48.884;2.258;2022-08-01T02:50:14;16.20;;;15.52;;
41057;SDS011;27499;48.884;2.258;2022-08-01T02:52:43;15.80;;;15.10;;
41057;SDS011;27499;48.884;2.258;2022-08-01T02:55:14;16.75;;;16.05;;
41057;SDS011;27499;48.884;2.258;2022-08-01T02:57:43;16.38;;;15.68;;
41057;SDS011;27499;48.884;2.258;2022-08-01T03:00:18;15.53;;;14.90;;
41057;SDS011;27499;48.884;2.258;2022-08-01T03:02:48;16.45;;;15.68;;
41057;SDS011;27499;48.884;2.258;2022-08-01T03:05:21;15.63;;;14.93;;
41057;SDS011;27499;48.884;2.258;2022-08-01T03:07:50;16.70;;;16.00;;
41057;SDS011;27499;48.884;2.258;2022-08-01T03:10:19;16.00;;;15.30;;
41057;SDS011;27499;48.884;2.258;2022-08-01T03:12:48;16.13;;;15.40;;
41057;SDS011;27499;48.884;2.258;2022-08-01T03:15:16;15.90;;;15.20;;
41057;SDS011;27499;48.884;2.258;2022-08-01T03:17:45;16.70;;;15.80;;
41057;SDS011;27499;48.884;2.258;2022-08-01T03:20:15;16.15;;;15.45;;
41057;SDS011;27499;48.884;2.258;2022-08-01T03:22:44;16.75;;;16.00;;
41057;SDS011;27499;48.884;2.258;2022-08-01T03:25:12;16.30;;;15.32;;
41057;SDS011;27499;48.884;2.258;2022-08-01T03:27:45;16.10;;;15.40;;
41057;SDS011;27499;48.884;2.258;2022-08-01T03:30:16;15.77;;;15.02;;
41057;SDS011;27499;48.884;2.258;2022-08-01T03:32:43;16.10;;;15.43;;
41057;SDS011;27499;48.884;2.258;2022-08-01T03:35:10;15.35;;;14.68;;
41057;SDS011;27499;48.884;2.258;2022-08-01T03:37:44;16.58;;;15.88;;
41057;SDS011;27499;48.884;2.258;2022-08-01T03:43:11;16.65;;;15.90;;
41057;SDS011;27499;48.884;2.258;2022-08-01T03:45:52;16.85;;;16.15;;
41057;SDS011;27499;48.884;2.258;2022-08-01T03:48:22;15.95;;;15.15;;
41057;SDS011;27499;48.884;2.258;2022-08-01T03:50:55;14.88;;;14.25;;
41057;SDS011;27499;48.884;2.258;2022-08-01T03:53:24;17.30;;;16.50;;
41057;SDS011;27499;48.884;2.258;2022-08-01T03:55:55;16.73;;;15.82;;
41057;SDS011;27499;48.884;2.258;2022-08-01T03:58:24;17.08;;;16.33;;
41057;SDS011;27499;48.884;2.258;2022-08-01T04:00:53;16.02;;;15.32;;
41057;SDS011;27499;48.884;2.258;2022-08-01T04:03:20;16.15;;;15.23;;
41057;SDS011;27499;48.884;2.258;2022-08-01T04:05:48;16.60;;;15.80;;
41057;SDS011;27499;48.884;2.258;2022-08-01T04:08:16;16.48;;;15.68;;
41057;SDS011;27499;48.884;2.258;2022-08-01T04:10:43;15.80;;;15.00;;
41057;SDS011;27499;48.884;2.258;2022-08-01T04:13:10;15.63;;;14.77;;
41057;SDS011;27499;48.884;2.258;2022-08-01T04:15:37;15.35;;;14.55;;
41057;SDS011;27499;48.884;2.258;2022-08-01T04:18:04;15.85;;;15.15;;
41057;SDS011;27499;48.884;2.258;2022-08-01T04:20:32;16.75;;;15.95;;
41057;SDS011;27499;48.884;2.258;2022-08-01T04:23:01;17.00;;;15.45;;
41057;SDS011;27499;48.884;2.258;2022-08-01T04:25:29;16.02;;;15.32;;
41057;SDS011;27499;48.884;2.258;2022-08-01T04:28:03;15.03;;;14.33;;
41057;SDS011;27499;48.884;2.258;2022-08-01T04:30:34;17.38;;;16.52;;
41057;SDS011;27499;48.884;2.258;2022-08-01T04:33:04;16.38;;;15.48;;
41057;SDS011;27499;48.884;2.258;2022-08-01T04:35:34;15.15;;;14.45;;
41057;SDS011;27499;48.884;2.258;2022-08-01T04:38:23;16.25;;;15.55;;
41057;SDS011;27499;48.884;2.258;2022-08-01T04:40:54;15.70;;;14.90;;
41057;SDS011;27499;48.884;2.258;2022-08-01T04:43:22;15.82;;;15.02;;
41057;SDS011;27499;48.884;2.258;2022-08-01T04:45:50;16.20;;;15.43;;
41057;SDS011;27499;48.884;2.258;2022-08-01T04:48:17;16.20;;;15.50;;
41057;SDS011;27499;48.884;2.258;2022-08-01T04:50:48;15.35;;;14.68;;
41057;SDS011;27499;48.884;2.258;2022-08-01T04:53:16;15.23;;;14.43;;
41057;SDS011;27499;48.884;2.258;2022-08-01T04:55:45;15.57;;;14.82;;
41057;SDS011;27499;48.884;2.258;2022-08-01T04:58:12;16.13;;;15.43;;
41057;SDS011;27499;48.884;2.258;2022-08-01T05:00:44;16.17;;;15.30;;
41057;SDS011;27499;48.884;2.258;2022-08-01T05:03:11;16.00;;;15.30;;
41057;SDS011;27499;48.884;2.258;2022-08-01T05:05:38;15.40;;;14.73;;
41057;SDS011;27499;48.884;2.258;2022-08-01T05:08:06;14.65;;;14.02;;
41057;SDS011;27499;48.884;2.258;2022-08-01T05:10:33;16.55;;;15.43;;
41057;SDS011;27499;48.884;2.258;2022-08-01T05:13:00;15.52;;;14.82;;
41057;SDS011;27499;48.884;2.258;2022-08-01T05:15:27;15.90;;;15.20;;
41057;SDS011;27499;48.884;2.258;2022-08-01T05:17:54;15.38;;;14.68;;
41057;SDS011;27499;48.884;2.258;2022-08-01T05:20:22;14.75;;;14.13;;
41057;SDS011;27499;48.884;2.258;2022-08-01T05:22:49;14.95;;;14.25;;
41057;SDS011;27499;48.884;2.258;2022-08-01T05:25:16;15.63;;;14.93;;
41057;SDS011;27499;48.884;2.258;2022-08-01T05:27:45;16.10;;;15.40;;
41057;SDS011;27499;48.884;2.258;2022-08-01T05:30:16;15.43;;;14.65;;
41057;SDS011;27499;48.884;2.258;2022-08-01T05:32:43;14.75;;;14.05;;
41057;SDS011;27499;48.884;2.258;2022-08-01T05:35:10;14.57;;;13.80;;
41057;SDS011;27499;48.884;2.258;2022-08-01T05:37:37;15.07;;;14.48;;
41057;SDS011;27499;48.884;2.258;2022-08-01T05:40:04;14.95;;;13.95;;
41057;SDS011;27499;48.884;2.258;2022-08-01T05:42:32;15.77;;;15.07;;
41057;SDS011;27499;48.884;2.258;2022-08-01T05:44:58;16.20;;;15.40;;
41057;SDS011;27499;48.884;2.258;2022-08-01T05:47:25;14.05;;;13.35;;
41057;SDS011;27499;48.884;2.258;2022-08-01T05:49:52;14.27;;;13.68;;
41057;SDS011;27499;48.884;2.258;2022-08-01T05:52:19;13.88;;;13.27;;
41057;SDS011;27499;48.884;2.258;2022-08-01T05:54:46;13.95;;;13.35;;
41057;SDS011;27499;48.884;2.258;2022-08-01T05:57:13;13.23;;;12.65;;
41057;SDS011;27499;48.884;2.258;2022-08-01T05:59:40;14.60;;;13.80;;
41057;SDS011;27499;48.884;2.258;2022-08-01T06:02:07;13.73;;;13.13;;
41057;SDS011;27499;48.884;2.258;2022-08-01T06:04:35;14.43;;;13.73;;
41057;SDS011;27499;48.884;2.258;2022-08-01T06:07:02;14.65;;;13.95;;
41057;SDS011;27499;48.884;2.258;2022-08-01T06:09:29;15.55;;;14.88;;
41057;SDS011;27499;48.884;2.258;2022-08-01T06:11:57;13.13;;;12.48;;
41057;SDS011;27499;48.884;2.258;2022-08-01T06:14:24;13.13;;;12.57;;
41057;SDS011;27499;48.884;2.258;2022-08-01T06:16:51;13.75;;;13.15;;
41057;SDS011;27499;48.884;2.258;2022-08-01T06:19:18;14.20;;;13.60;;
41057;SDS011;27499;48.884;2.258;2022-08-01T06:21:44;13.18;;;12.57;;
41057;SDS011;27499;48.884;2.258;2022-08-01T06:24:11;13.60;;;12.90;;
41057;SDS011;27499;48.884;2.258;2022-08-01T06:26:38;14.68;;;13.98;;
41057;SDS011;27499;48.884;2.258;2022-08-01T06:29:05;15.07;;;14.18;;
41057;SDS011;27499;48.884;2.258;2022-08-01T06:31:35;13.73;;;12.90;;
41057;SDS011;27499;48.884;2.258;2022-08-01T06:34:02;15.30;;;14.18;;
41057;SDS011;27499;48.884;2.258;2022-08-01T06:36:28;14.70;;;13.90;;
41057;SDS011;27499;48.884;2.258;2022-08-01T06:38:55;14.23;;;13.52;;
41057;SDS011;27499;48.884;2.258;2022-08-01T06:41:22;13.85;;;13.15;;
41057;SDS011;27499;48.884;2.258;2022-08-01T06:43:49;13.65;;;12.88;;
41057;SDS011;27499;48.884;2.258;2022-08-01T06:46:16;13.75;;;13.07;;
41057;SDS011;27499;48.884;2.258;2022-08-01T06:48:43;14.02;;;12.88;;
41057;SDS011;27499;48.884;2.258;2022-08-01T06:51:10;13.68;;;12.88;;
41057;SDS011;27499;48.884;2.258;2022-08-01T06:53:41;13.35;;;12.65;;
41057;SDS011;27499;48.884;2.258;2022-08-01T06:56:10;14.38;;;13.38;;
41057;SDS011;27499;48.884;2.258;2022-08-01T06:58:37;14.05;;;13.25;;
41057;SDS011;27499;48.884;2.258;2022-08-01T07:01:04;13.48;;;12.57;;
41057;SDS011;27499;48.884;2.258;2022-08-01T07:03:35;13.48;;;12.77;;
41057;SDS011;27499;48.884;2.258;2022-08-01T07:06:19;14.27;;;13.48;;
41057;SDS011;27499;48.884;2.258;2022-08-01T07:08:46;13.98;;;13.32;;
41057;SDS011;27499;48.884;2.258;2022-08-01T07:11:13;14.15;;;13.35;;
41057;SDS011;27499;48.884;2.258;2022-08-01T07:13:40;14.25;;;13.52;;
41057;SDS011;27499;48.884;2.258;2022-08-01T07:16:11;14.70;;;13.90;;
41057;SDS011;27499;48.884;2.258;2022-08-01T07:18:39;14.48;;;13.77;;
41057;SDS011;27499;48.884;2.258;2022-08-01T07:21:07;15.10;;;14.02;;
41057;SDS011;27499;48.884;2.258;2022-08-01T07:23:54;12.75;;;12.05;;
41057;SDS011;27499;48.884;2.258;2022-08-01T07:26:21;13.55;;;12.90;;
41057;SDS011;27499;48.884;2.258;2022-08-01T07:28:48;13.82;;;12.93;;
41057;SDS011;27499;48.884;2.258;2022-08-01T07:31:15;13.02;;;12.35;;
41057;SDS011;27499;48.884;2.258;2022-08-01T07:33:42;13.35;;;12.45;;
41057;SDS011;27499;48.884;2.258;2022-08-01T07:36:17;13.48;;;12.80;;
41057;SDS011;27499;48.884;2.258;2022-08-01T07:38:45;12.27;;;11.57;;
41057;SDS011;27499;48.884;2.258;2022-08-01T07:41:12;14.07;;;13.38;;
41057;SDS011;27499;48.884;2.258;2022-08-01T07:43:39;14.90;;;13.73;;
41057;SDS011;27499;48.884;2.258;2022-08-01T07:46:10;16.50;;;15.48;;
41057;SDS011;27499;48.884;2.258;2022-08-01T07:48:37;15.10;;;14.40;;
41057;SDS011;27499;48.884;2.258;2022-08-01T07:51:04;13.88;;;13.07;;
41057;SDS011;27499;48.884;2.258;2022-08-01T07:53:31;13.90;;;13.20;;
41057;SDS011;27499;48.884;2.258;2022-08-01T07:55:58;15.02;;;14.32;;
41057;SDS011;27499;48.884;2.258;2022-08-01T07:58:25;14.05;;;13.35;;
41057;SDS011;27499;48.884;2.258;2022-08-01T08:00:52;14.15;;;13.35;;
41057;SDS011;27499;48.884;2.258;2022-08-01T08:03:19;12.95;;;12.35;;
41057;SDS011;27499;48.884;2.258;2022-08-01T08:05:46;15.60;;;14.60;;
41057;SDS011;27499;48.884;2.258;2022-08-01T08:08:25;12.57;;;11.93;;
41057;SDS011;27499;48.884;2.258;2022-08-01T08:10:52;12.68;;;11.98;;
41057;SDS011;27499;48.884;2.258;2022-08-01T08:13:20;13.80;;;12.95;;
41057;SDS011;27499;48.884;2.258;2022-08-01T08:15:47;12.27;;;11.63;;
41057;SDS011;27499;48.884;2.258;2022-08-01T08:18:14;12.93;;;12.02;;
41057;SDS011;27499;48.884;2.258;2022-08-01T08:20:42;13.85;;;12.82;;
41057;SDS011;27499;48.884;2.258;2022-08-01T08:23:09;10.88;;;10.18;;
41057;SDS011;27499;48.884;2.258;2022-08-01T08:26:08;10.73;;;10.02;;
41057;SDS011;27499;48.884;2.258;2022-08-01T08:28:35;9.65;;;9.05;;
41057;SDS011;27499;48.884;2.258;2022-08-01T08:31:02;9.02;;;8.43;;
41057;SDS011;27499;48.884;2.258;2022-08-01T08:33:29;7.75;;;7.35;;
41057;SDS011;27499;48.884;2.258;2022-08-01T08:35:56;8.85;;;8.25;;
41057;SDS011;27499;48.884;2.258;2022-08-01T08:38:23;8.00;;;7.47;;
41057;SDS011;27499;48.884;2.258;2022-08-01T08:40:55;8.07;;;7.60;;
41057;SDS011;27499;48.884;2.258;2022-08-01T08:43:24;8.10;;;7.40;;
41057;SDS011;27499;48.884;2.258;2022-08-01T08:45:52;8.77;;;7.90;;
41057;SDS011;27499;48.884;2.258;2022-08-01T08:48:25;7.43;;;6.82;;
41057;SDS011;27499;48.884;2.258;2022-08-01T08:50:52;7.35;;;6.70;;
41057;SDS011;27499;48.884;2.258;2022-08-01T08:53:21;8.20;;;7.60;;
41057;SDS011;27499;48.884;2.258;2022-08-01T08:55:48;15.20;;;9.80;;
41057;SDS011;27499;48.884;2.258;2022-08-01T08:58:21;22.83;;;13.55;;
41057;SDS011;27499;48.884;2.258;2022-08-01T09:00:57;8.27;;;7.63;;
41057;SDS011;27499;48.884;2.258;2022-08-01T09:03:24;8.40;;;7.88;;
41057;SDS011;27499;48.884;2.258;2022-08-01T09:05:51;12.25;;;11.23;;
41057;SDS011;27499;48.884;2.258;2022-08-01T09:08:18;11.82;;;8.55;;
41057;SDS011;27499;48.884;2.258;2022-08-01T09:10:45;7.88;;;7.38;;
41057;SDS011;27499;48.884;2.258;2022-08-01T09:13:12;13.15;;;10.20;;
41057;SDS011;27499;48.884;2.258;2022-08-01T09:15:46;10.68;;;8.60;;
41057;SDS011;27499;48.884;2.258;2022-08-01T09:18:38;5.93;;;5.60;;
41057;SDS011;27499;48.884;2.258;2022-08-01T09:23:55;8.25;;;7.65;;
41057;SDS011;27499;48.884;2.258;2022-08-01T09:26:28;7.47;;;6.70;;
41057;SDS011;27499;48.884;2.258;2022-08-01T09:28:59;6.57;;;6.22;;
41057;SDS011;27499;48.884;2.258;2022-08-01T09:31:38;6.43;;;5.97;;
41057;SDS011;27499;48.884;2.258;2022-08-01T09:34:13;7.43;;;6.93;;
41057;SDS011;27499;48.884;2.258;2022-08-01T09:36:46;7.97;;;7.30;;
41057;SDS011;27499;48.884;2.258;2022-08-01T09:39:27;6.50;;;6.10;;
41057;SDS011;27499;48.884;2.258;2022-08-01T09:41:56;7.05;;;6.65;;
41057;SDS011;27499;48.884;2.258;2022-08-01T09:44:38;8.90;;;8.40;;
41057;SDS011;27499;48.884;2.258;2022-08-01T09:47:20;7.57;;;7.18;;
41057;SDS011;27499;48.884;2.258;2022-08-01T09:49:54;9.50;;;9.00;;
41057;SDS011;27499;48.884;2.258;2022-08-01T09:52:25;7.72;;;7.28;;
41057;SDS011;27499;48.884;2.258;2022-08-01T09:54:58;8.15;;;7.75;;
41057;SDS011;27499;48.884;2.258;2022-08-01T09:57:28;9.45;;;8.70;;
41057;SDS011;27499;48.884;2.258;2022-08-01T09:59:58;9.02;;;8.32;;
41057;SDS011;27499;48.884;2.258;2022-08-01T10:02:28;8.68;;;8.05;;
41057;SDS011;27499;48.884;2.258;2022-08-01T10:05:00;6.38;;;5.97;;
41057;SDS011;27499;48.884;2.258;2022-08-01T10:07:34;6.13;;;5.72;;
41057;SDS011;27499;48.884;2.258;2022-08-01T10:12:41;5.25;;;4.95;;
41057;SDS011;27499;48.884;2.258;2022-08-01T10:15:10;5.93;;;5.53;;
41057;SDS011;27499;48.884;2.258;2022-08-01T10:17:40;6.53;;;6.13;;
41057;SDS011;27499;48.884;2.258;2022-08-01T10:20:23;6.63;;;6.13;;
41057;SDS011;27499;48.884;2.258;2022-08-01T10:22:58;7.10;;;6.60;;
41057;SDS011;27499;48.884;2.258;2022-08-01T10:28:15;8.13;;;7.43;;
41057;SDS011;27499;48.884;2.258;2022-08-01T10:30:50;7.70;;;6.95;;
41057;SDS011;27499;48.884;2.258;2022-08-01T10:33:18;6.63;;;6.13;;
41057;SDS011;27499;48.884;2.258;2022-08-01T10:36:08;6.78;;;6.18;;
41057;SDS011;27499;48.884;2.258;2022-08-01T10:38:36;6.50;;;6.10;;
41057;SDS011;27499;48.884;2.258;2022-08-01T10:41:04;6.55;;;6.07;;
41057;SDS011;27499;48.884;2.258;2022-08-01T10:43:34;6.70;;;6.30;;
41057;SDS011;27499;48.884;2.258;2022-08-01T10:46:02;6.75;;;6.25;;
41057;SDS011;27499;48.884;2.258;2022-08-01T10:51:18;6.20;;;5.45;;
41057;SDS011;27499;48.884;2.258;2022-08-01T10:54:08;7.28;;;6.55;;
41057;SDS011;27499;48.884;2.258;2022-08-01T10:56:42;6.32;;;5.90;;
41057;SDS011;27499;48.884;2.258;2022-08-01T10:59:14;8.10;;;7.30;;
41057;SDS011;27499;48.884;2.258;2022-08-01T11:02:31;7.22;;;6.53;;
41057;SDS011;27499;48.884;2.258;2022-08-01T11:05:01;6.35;;;5.85;;
41057;SDS011;27499;48.884;2.258;2022-08-01T11:07:46;5.82;;;5.15;;
41057;SDS011;27499;48.884;2.258;2022-08-01T11:12:51;6.57;;;6.07;;
41057;SDS011;27499;48.884;2.258;2022-08-01T11:15:19;6.95;;;6.32;;
41057;SDS011;27499;48.884;2.258;2022-08-01T11:17:56;6.03;;;5.63;;
41057;SDS011;27499;48.884;2.258;2022-08-01T11:20:30;5.43;;;5.13;;
41057;SDS011;27499;48.884;2.258;2022-08-01T11:28:26;7.68;;;6.97;;
41057;SDS011;27499;48.884;2.258;2022-08-01T11:41:40;8.00;;;7.60;;
41057;SDS011;27499;48.884;2.258;2022-08-01T11:44:17;8.73;;;8.23;;
41057;SDS011;27499;48.884;2.258;2022-08-01T11:47:08;7.80;;;7.30;;
41057;SDS011;27499;48.884;2.258;2022-08-01T11:52:16;8.63;;;8.05;;
41057;SDS011;27499;48.884;2.258;2022-08-01T11:54:57;9.80;;;8.98;;
41057;SDS011;27499;48.884;2.258;2022-08-01T11:57:36;8.70;;;8.10;;
41057;SDS011;27499;48.884;2.258;2022-08-01T12:02:44;8.30;;;7.80;;
41057;SDS011;27499;48.884;2.258;2022-08-01T12:05:13;7.97;;;7.40;;
41057;SDS011;27499;48.884;2.258;2022-08-01T12:07:44;9.68;;;9.07;;
41057;SDS011;27499;48.884;2.258;2022-08-01T12:10:14;8.98;;;8.35;;
41057;SDS011;27499;48.884;2.258;2022-08-01T12:12:46;10.00;;;9.40;;
41057;SDS011;27499;48.884;2.258;2022-08-01T12:15:14;9.10;;;8.57;;
41057;SDS011;27499;48.884;2.258;2022-08-01T12:17:44;10.07;;;9.50;;
41057;SDS011;27499;48.884;2.258;2022-08-01T12:20:25;8.95;;;8.50;;
41057;SDS011;27499;48.884;2.258;2022-08-01T12:22:56;10.27;;;9.57;;
41057;SDS011;27499;48.884;2.258;2022-08-01T12:25:25;9.85;;;9.25;;
41057;SDS011;27499;48.884;2.258;2022-08-01T12:27:52;8.50;;;8.00;;
41057;SDS011;27499;48.884;2.258;2022-08-01T12:30:22;9.45;;;8.60;;
41057;SDS011;27499;48.884;2.258;2022-08-01T12:32:53;9.80;;;8.95;;
41057;SDS011;27499;48.884;2.258;2022-08-01T12:35:21;10.30;;;9.50;;
41057;SDS011;27499;48.884;2.258;2022-08-01T12:42:55;9.30;;;8.70;;
41057;SDS011;27499;48.884;2.258;2022-08-01T12:45:30;9.82;;;9.23;;
41057;SDS011;27499;48.884;2.258;2022-08-01T12:48:05;8.88;;;8.18;;
41057;SDS011;27499;48.884;2.258;2022-08-01T12:50:41;8.85;;;8.35;;
41057;SDS011;27499;48.884;2.258;2022-08-01T12:53:10;9.85;;;9.15;;
41057;SDS011;27499;48.884;2.258;2022-08-01T12:58:31;9.13;;;8.52;;
41057;SDS011;27499;48.884;2.258;2022-08-01T13:01:03;9.10;;;8.60;;
41057;SDS011;27499;48.884;2.258;2022-08-01T13:03:32;9.40;;;8.90;;
41057;SDS011;27499;48.884;2.258;2022-08-01T13:05:59;9.30;;;8.75;;
41057;SDS011;27499;48.884;2.258;2022-08-01T13:08:30;9.95;;;9.23;;
41057;SDS011;27499;48.884;2.258;2022-08-01T13:11:05;9.73;;;8.98;;
41057;SDS011;27499;48.884;2.258;2022-08-01T13:13:38;9.13;;;8.52;;
41057;SDS011;27499;48.884;2.258;2022-08-01T13:16:07;9.63;;;9.02;;
41057;SDS011;27499;48.884;2.258;2022-08-01T13:18:41;9.50;;;8.77;;
41057;SDS011;27499;48.884;2.258;2022-08-01T13:21:20;9.32;;;8.65;;
41057;SDS011;27499;48.884;2.258;2022-08-01T13:24:14;9.35;;;8.85;;
41057;SDS011;27499;48.884;2.258;2022-08-01T13:26:46;12.40;;;9.38;;
41057;SDS011;27499;48.884;2.258;2022-08-01T13:29:21;9.60;;;9.00;;
41057;SDS011;27499;48.884;2.258;2022-08-01T13:31:55;8.57;;;8.07;;
41057;SDS011;27499;48.884;2.258;2022-08-01T13:34:32;10.13;;;9.60;;
41057;SDS011;27499;48.884;2.258;2022-08-01T13:37:00;9.20;;;8.55;;
41057;SDS011;27499;48.884;2.258;2022-08-01T13:39:28;9.93;;;9.23;;
41057;SDS011;27499;48.884;2.258;2022-08-01T13:42:08;7.28;;;6.68;;
41057;SDS011;27499;48.884;2.258;2022-08-01T13:44:44;6.97;;;6.57;;
41057;SDS011;27499;48.884;2.258;2022-08-01T13:47:11;7.88;;;7.38;;
41057;SDS011;27499;48.884;2.258;2022-08-01T13:49:41;7.75;;;7.15;;
41057;SDS011;27499;48.884;2.258;2022-08-01T13:52:08;6.97;;;6.47;;
41057;SDS011;27499;48.884;2.258;2022-08-01T13:54:35;6.53;;;6.15;;
41057;SDS011;27499;48.884;2.258;2022-08-01T13:57:02;6.97;;;6.35;;
41057;SDS011;27499;48.884;2.258;2022-08-01T13:59:29;6.38;;;5.78;;
41057;SDS011;27499;48.884;2.258;2022-08-01T14:01:56;6.65;;;6.15;;
41057;SDS011;27499;48.884;2.258;2022-08-01T14:04:23;6.90;;;6.50;;
41057;SDS011;27499;48.884;2.258;2022-08-01T14:06:50;5.63;;;5.32;;
41057;SDS011;27499;48.884;2.258;2022-08-01T14:09:17;6.45;;;6.05;;
41057;SDS011;27499;48.884;2.258;2022-08-01T14:11:49;7.22;;;6.82;;
41057;SDS011;27499;48.884;2.258;2022-08-01T14:14:17;7.07;;;6.68;;
41057;SDS011;27499;48.884;2.258;2022-08-01T14:16:44;5.93;;;5.63;;
41057;SDS011;27499;48.884;2.258;2022-08-01T14:19:11;5.78;;;5.38;;
41057;SDS011;27499;48.884;2.258;2022-08-01T14:21:38;6.38;;;5.93;;
41057;SDS011;27499;48.884;2.258;2022-08-01T14:24:05;5.93;;;5.63;;
41057;SDS011;27499;48.884;2.258;2022-08-01T14:26:33;6.32;;;5.95;;
41057;SDS011;27499;48.884;2.258;2022-08-01T14:29:01;5.88;;;5.47;;
41057;SDS011;27499;48.884;2.258;2022-08-01T14:31:28;6.38;;;5.97;;
41057;SDS011;27499;48.884;2.258;2022-08-01T14:33:59;6.80;;;6.30;;
41057;SDS011;27499;48.884;2.258;2022-08-01T14:36:26;7.00;;;6.60;;
41057;SDS011;27499;48.884;2.258;2022-08-01T14:38:57;6.47;;;6.03;;
41057;SDS011;27499;48.884;2.258;2022-08-01T14:41:26;6.30;;;5.90;;
41057;SDS011;27499;48.884;2.258;2022-08-01T14:43:55;6.13;;;5.72;;
41057;SDS011;27499;48.884;2.258;2022-08-01T14:46:22;5.70;;;5.30;;
41057;SDS011;27499;48.884;2.258;2022-08-01T14:48:49;6.38;;;5.97;;
41057;SDS011;27499;48.884;2.258;2022-08-01T14:51:16;6.40;;;6.03;;
41057;SDS011;27499;48.884;2.258;2022-08-01T14:53:43;6.25;;;5.85;;
41057;SDS011;27499;48.884;2.258;2022-08-01T14:56:18;8.35;;;5.65;;
41057;SDS011;27499;48.884;2.258;2022-08-01T14:58:45;5.88;;;5.57;;
41057;SDS011;27499;48.884;2.258;2022-08-01T15:01:13;6.10;;;5.70;;
41057;SDS011;27499;48.884;2.258;2022-08-01T15:03:41;6.40;;;6.00;;
41057;SDS011;27499;48.884;2.258;2022-08-01T15:06:08;6.75;;;6.25;;
41057;SDS011;27499;48.884;2.258;2022-08-01T15:08:37;6.43;;;6.03;;
41057;SDS011;27499;48.884;2.258;2022-08-01T15:11:04;5.72;;;5.32;;
41057;SDS011;27499;48.884;2.258;2022-08-01T15:13:32;6.18;;;5.78;;
41057;SDS011;27499;48.884;2.258;2022-08-01T15:15:59;6.00;;;5.50;;
41057;SDS011;27499;48.884;2.258;2022-08-01T15:18:29;5.82;;;5.43;;
41057;SDS011;27499;48.884;2.258;2022-08-01T15:20:59;6.10;;;5.80;;
41057;SDS011;27499;48.884;2.258;2022-08-01T15:23:26;5.80;;;5.50;;
41057;SDS011;27499;48.884;2.258;2022-08-01T15:25:53;6.07;;;5.57;;
41057;SDS011;27499;48.884;2.258;2022-08-01T15:28:20;6.55;;;5.47;;
41057;SDS011;27499;48.884;2.258;2022-08-01T15:30:47;6.18;;;5.68;;
41057;SDS011;27499;48.884;2.258;2022-08-01T15:33:14;6.30;;;5.90;;
41057;SDS011;27499;48.884;2.258;2022-08-01T15:35:41;6.07;;;5.68;;
41057;SDS011;27499;48.884;2.258;2022-08-01T15:38:08;6.07;;;5.40;;
41057;SDS011;27499;48.884;2.258;2022-08-01T15:40:35;5.60;;;5.10;;
41057;SDS011;27499;48.884;2.258;2022-08-01T15:43:02;6.10;;;5.70;;
41057;SDS011;27499;48.884;2.258;2022-08-01T15:45:29;6.43;;;5.93;;
41057;SDS011;27499;48.884;2.258;2022-08-01T15:48:13;6.32;;;5.93;;
41057;SDS011;27499;48.884;2.258;2022-08-01T15:50:40;6.15;;;5.80;;
41057;SDS011;27499;48.884;2.258;2022-08-01T15:53:07;6.38;;;5.97;;
41057;SDS011;27499;48.884;2.258;2022-08-01T15:55:37;5.45;;;4.80;;
41057;SDS011;27499;48.884;2.258;2022-08-01T15:58:05;5.72;;;5.43;;